Time;durP1;ratioP1;P1;durP2;ratioP2;P2;SDS_P1;SDS_P2;PMS_P1;PMS_P2;Temp;Humidity;BMP_temperature;BMP_pressure;BME280_temperature;BME280_humidity;BME280_pressure;Samples;Min_cycle;Max_cycle;Signal;HPM_P1;HPM_P2
2021/07/26 00:01:26;;;;;;;24.60;22.00;;;640.90;1996.80;;;;;;5071910;28;20109;-61
2021/07/26 00:03:52;;;;;;;23.20;20.88;;;640.70;1971.20;;;;;;5071486;28;20115;-61
2021/07/26 00:06:17;;;;;;;22.48;17.38;;;640.80;1971.20;;;;;;5071734;28;20060;-61
2021/07/26 00:08:43;;;;;;;19.67;15.98;;;640.80;1920.00;;;;;;5071626;28;20020;-61
2021/07/26 00:11:11;;;;;;;19.73;17.65;;;665.60;1894.40;;;;;;5071445;28;20024;-61
2021/07/26 00:13:38;;;;;;;22.55;18.73;;;665.60;1971.20;;;;;;5071516;28;20429;-61
2021/07/26 00:16:05;;;;;;;21.17;18.95;;;640.60;1996.80;;;;;;5071225;28;20028;-60
2021/07/26 00:18:31;;;;;;;21.58;18.25;;;640.50;1996.80;;;;;;5071294;28;20111;-62
2021/07/26 00:20:58;;;;;;;27.08;20.35;;;640.50;1996.80;;;;;;5071501;28;20031;-61
2021/07/26 00:23:24;;;;;;;21.98;19.73;;;640.50;1971.20;;;;;;5071318;28;20111;-61
2021/07/26 00:25:51;;;;;;;21.88;19.50;;;640.60;2022.40;;;;;;5071051;28;20033;-62
2021/07/26 00:28:17;;;;;;;20.90;18.80;;;640.60;2022.40;;;;;;5071512;28;20463;-62
2021/07/26 00:30:43;;;;;;;21.33;18.42;;;640.50;2022.40;;;;;;5071034;28;20039;-62
2021/07/26 00:34:08;;;;;;;22.52;20.13;;;640.50;2048.00;;;;;;5070976;28;20044;-61
2021/07/26 00:36:45;;;;;;;20.80;18.63;;;640.40;2022.40;;;;;;4989722;28;20034;-61
2021/07/26 00:39:14;;;;;;;21.27;18.83;;;640.30;2048.00;;;;;;4989446;28;20053;-61
2021/07/26 00:41:41;;;;;;;20.05;17.70;;;640.20;2048.00;;;;;;4989344;28;20103;-62
2021/07/26 00:44:07;;;;;;;20.83;17.83;;;640.10;2022.40;;;;;;4989469;28;20112;-60
2021/07/26 00:46:34;;;;;;;19.42;17.15;;;640.10;2048.00;;;;;;4989421;28;20034;-61
2021/07/26 00:49:01;;;;;;;19.88;16.48;;;640.00;2073.60;;;;;;4989465;28;20125;-61
2021/07/26 00:51:27;;;;;;;18.67;16.67;;;640.00;2048.00;;;;;;4989509;28;20026;-61
2021/07/26 00:53:53;;;;;;;19.52;16.27;;;640.00;2073.60;;;;;;4989250;28;20034;-61
2021/07/26 00:56:20;;;;;;;15.88;14.30;;;615.30;2048.00;;;;;;4989210;28;20027;-62
2021/07/26 00:58:46;;;;;;;17.52;14.57;;;615.20;2099.20;;;;;;4989579;28;20065;-61
2021/07/26 01:01:15;;;;;;;16.75;15.05;;;615.10;2099.20;;;;;;4988197;28;20088;-61
2021/07/26 01:03:44;;;;;;;18.42;14.57;;;615.00;2124.80;;;;;;4988954;28;20129;-61
2021/07/26 01:06:12;;;;;;;17.38;15.63;;;615.00;2099.20;;;;;;4988912;28;20177;-61
2021/07/26 01:08:38;;;;;;;18.13;16.23;;;615.00;2099.20;;;;;;4989296;28;20491;-60
2021/07/26 01:11:05;;;;;;;17.30;15.50;;;614.90;2099.20;;;;;;4989089;28;20412;-61
2021/07/26 01:13:31;;;;;;;17.50;15.73;;;614.90;2073.60;;;;;;5065940;28;20029;-61
2021/07/26 01:15:57;;;;;;;18.48;16.23;;;614.90;2099.20;;;;;;5070503;28;20382;-61
2021/07/26 01:18:26;;;;;;;20.90;15.52;;;614.90;2124.80;;;;;;5070620;28;20352;-60
2021/07/26 01:21:18;;;;;;;19.25;15.77;;;614.90;2124.80;;;;;;5070205;28;20025;-61
2021/07/26 01:23:46;;;;;;;15.50;13.90;;;614.90;2150.40;;;;;;5067110;28;20052;-61
2021/07/26 01:26:15;;;;;;;17.70;15.43;;;614.80;2176.00;;;;;;5070005;28;20024;-61
2021/07/26 01:28:45;;;;;;;17.73;15.13;;;614.80;2176.00;;;;;;5070193;28;20032;-61
2021/07/26 01:31:11;;;;;;;19.23;15.50;;;614.50;2201.60;;;;;;5070213;28;20099;-61
2021/07/26 01:33:38;;;;;;;18.33;15.30;;;614.40;2252.80;;;;;;5070073;28;20052;-61
2021/07/26 01:36:04;;;;;;;17.17;14.98;;;589.70;2278.40;;;;;;5070252;28;20028;-61
2021/07/26 01:38:30;;;;;;;17.83;15.93;;;589.50;2304.00;;;;;;5075243;28;20086;-63
2021/07/26 01:41:11;;;;;;;17.10;15.30;;;589.40;2304.00;;;;;;5070069;28;20532;-61
2021/07/26 01:43:50;;;;;;;15.77;14.07;;;589.40;2304.00;;;;;;5068343;28;20150;-60
2021/07/26 01:46:25;;;;;;;25.63;15.80;;;589.40;2278.40;;;;;;5070387;28;20044;-61
2021/07/26 01:49:00;;;;;;;15.63;14.00;;;589.50;2278.40;;;;;;5069976;28;20020;-61
2021/07/26 01:51:44;;;;;;;16.13;13.95;;;589.60;2252.80;;;;;;5070018;28;20039;-61
2021/07/26 01:54:11;;;;;;;16.83;14.75;;;589.60;2227.20;;;;;;5069975;28;20029;-61
2021/07/26 01:56:38;;;;;;;17.40;14.65;;;589.50;2252.80;;;;;;5069906;28;20028;-61
2021/07/26 01:59:06;;;;;;;17.58;15.63;;;589.50;2278.40;;;;;;5070027;28;20024;-61
2021/07/26 02:01:32;;;;;;;16.17;14.48;;;589.60;2278.40;;;;;;5069693;28;20028;-61
2021/07/26 02:03:58;;;;;;;16.17;14.43;;;589.60;2252.80;;;;;;5069902;28;20039;-61
2021/07/26 02:06:24;;;;;;;18.67;15.95;;;589.50;2278.40;;;;;;5070005;28;20029;-58
2021/07/26 02:08:50;;;;;;;17.58;15.43;;;589.50;2304.00;;;;;;5069969;28;20025;-61
2021/07/26 02:11:16;;;;;;;17.13;15.00;;;589.50;2304.00;;;;;;5069731;28;20029;-60
2021/07/26 02:13:41;;;;;;;15.98;14.35;;;589.30;2355.20;;;;;;5072507;28;20032;-61
2021/07/26 02:16:11;;;;;;;17.17;15.40;;;589.20;2380.80;;;;;;5073830;28;20031;-60
2021/07/26 02:18:37;;;;;;;17.38;14.15;;;589.00;2380.80;;;;;;5073783;28;20032;-60
2021/07/26 02:21:04;;;;;;;19.88;15.43;;;589.00;2406.40;;;;;;5073470;28;20025;-61
2021/07/26 02:23:30;;;;;;;16.52;14.82;;;589.00;2406.40;;;;;;5073280;28;20032;-61
2021/07/26 02:25:55;;;;;;;16.85;14.15;;;589.00;2380.80;;;;;;5073520;28;20091;-62
2021/07/26 02:28:22;;;;;;;20.20;15.77;;;589.00;2406.40;;;;;;5073315;28;20557;-60
2021/07/26 02:30:48;;;;;;;18.30;16.23;;;588.90;2432.00;;;;;;5073688;28;20025;-61
2021/07/26 02:33:14;;;;;;;20.40;16.52;;;588.80;2432.00;;;;;;5073157;28;20052;-61
2021/07/26 02:35:39;;;;;;;17.35;15.55;;;588.80;2432.00;;;;;;5073184;28;20032;-61
2021/07/26 02:38:05;;;;;;;18.05;14.60;;;564.10;2432.00;;;;;;5073300;28;20505;-61
2021/07/26 02:40:31;;;;;;;24.17;16.25;;;564.00;2432.00;;;;;;5073223;28;20038;-62
2021/07/26 02:42:57;;;;;;;18.27;15.98;;;564.00;2432.00;;;;;;5073209;28;20028;-61
2021/07/26 02:45:25;;;;;;;16.15;14.45;;;564.10;2432.00;;;;;;5072964;28;20075;-62
2021/07/26 02:47:51;;;;;;;18.98;15.65;;;564.00;2432.00;;;;;;5073093;28;20033;-61
2021/07/26 02:50:17;;;;;;;21.02;16.13;;;564.10;2432.00;;;;;;5073342;28;20559;-61
2021/07/26 02:52:42;;;;;;;17.15;14.43;;;564.10;2432.00;;;;;;5072936;28;20024;-61
2021/07/26 02:55:08;;;;;;;17.08;14.40;;;564.10;2432.00;;;;;;5072960;28;20120;-60
2021/07/26 02:57:34;;;;;;;21.70;14.65;;;564.10;2432.00;;;;;;5072998;28;20021;-62
2021/07/26 03:00:00;;;;;;;18.13;14.23;;;564.10;2432.00;;;;;;5072762;28;20108;-61
2021/07/26 03:02:26;;;;;;;19.70;15.85;;;588.80;2432.00;;;;;;5072869;28;20032;-61
2021/07/26 03:04:52;;;;;;;16.27;13.57;;;588.90;2432.00;;;;;;5072643;28;20045;-61
2021/07/26 03:07:17;;;;;;;18.90;14.82;;;588.90;2432.00;;;;;;5072841;28;20383;-62
2021/07/26 03:09:43;;;;;;;19.83;14.57;;;589.00;2432.00;;;;;;5072872;28;20378;-61
2021/07/26 03:12:09;;;;;;;19.80;14.35;;;589.00;2432.00;;;;;;5071278;28;20028;-62
2021/07/26 03:14:35;;;;;;;17.33;15.15;;;589.00;2432.00;;;;;;5072700;28;20028;-61
2021/07/26 03:17:04;;;;;;;18.80;14.13;;;589.10;2432.00;;;;;;5072528;28;20032;-62
2021/07/26 03:19:31;;;;;;;18.80;15.48;;;589.00;2432.00;;;;;;5072462;28;20032;-61
2021/07/26 03:22:36;;;;;;;19.50;15.15;;;589.00;2432.00;;;;;;5072443;28;20482;-61
2021/07/26 03:25:02;;;;;;;24.67;15.57;;;589.00;2432.00;;;;;;5071140;28;20043;-61
2021/07/26 03:27:28;;;;;;;18.88;14.57;;;589.00;2432.00;;;;;;5072320;28;20060;-61
2021/07/26 03:29:54;;;;;;;20.52;15.70;;;588.90;2432.00;;;;;;5072210;28;20121;-61
2021/07/26 03:32:19;;;;;;;19.02;15.43;;;588.90;2432.00;;;;;;5071814;28;20036;-61
2021/07/26 03:34:45;;;;;;;27.35;16.08;;;588.90;2432.00;;;;;;5072481;28;20036;-61
2021/07/26 03:37:11;;;;;;;20.40;15.05;;;588.80;2432.00;;;;;;5072008;28;20016;-62
2021/07/26 03:39:36;;;;;;;15.85;14.13;;;588.80;2432.00;;;;;;5072364;28;20027;-61
2021/07/26 03:42:02;;;;;;;19.33;13.55;;;588.90;2432.00;;;;;;5072031;28;20020;-61
2021/07/26 03:44:28;;;;;;;17.17;13.93;;;589.00;2432.00;;;;;;5071905;28;20035;-61
2021/07/26 03:46:53;;;;;;;18.20;14.85;;;589.00;2432.00;;;;;;5071928;28;20028;-61
2021/07/26 03:49:19;;;;;;;17.67;14.75;;;589.00;2432.00;;;;;;5071876;28;20078;-62
2021/07/26 03:51:45;;;;;;;15.63;13.80;;;589.00;2432.00;;;;;;5072314;28;20103;-61
2021/07/26 03:54:10;;;;;;;19.58;15.75;;;588.90;2432.00;;;;;;5075045;28;20032;-61
2021/07/26 03:56:36;;;;;;;18.88;15.40;;;589.00;2432.00;;;;;;5081609;28;20027;-59
2021/07/26 03:59:02;;;;;;;20.85;16.40;;;588.90;2432.00;;;;;;5082005;28;20096;-61
2021/07/26 04:01:28;;;;;;;19.33;17.33;;;589.00;2432.00;;;;;;5092009;28;20024;-61
2021/07/26 04:03:53;;;;;;;17.70;15.27;;;589.00;2432.00;;;;;;5091631;28;20075;-61
2021/07/26 04:06:21;;;;;;;23.52;16.50;;;589.10;2432.00;;;;;;5091665;28;20061;-61
2021/07/26 04:08:49;;;;;;;18.60;15.98;;;589.20;2432.00;;;;;;5084390;28;20505;-61
2021/07/26 04:11:27;;;;;;;18.33;15.05;;;589.30;2432.00;;;;;;5086529;28;20066;-62
2021/07/26 04:13:57;;;;;;;16.67;14.98;;;589.40;2432.00;;;;;;5091484;28;20035;-61
2021/07/26 04:16:22;;;;;;;18.38;14.50;;;589.60;2432.00;;;;;;5091509;28;20028;-61
2021/07/26 04:18:50;;;;;;;17.17;15.20;;;614.50;2432.00;;;;;;5091860;28;20103;-61
2021/07/26 04:21:17;;;;;;;20.70;15.07;;;615.10;2432.00;;;;;;5090143;28;20060;-60
2021/07/26 04:23:42;;;;;;;18.40;13.43;;;614.90;2432.00;;;;;;5091479;28;20028;-62
2021/07/26 04:26:08;;;;;;;17.08;15.25;;;614.90;2432.00;;;;;;5091695;28;20058;-61
2021/07/26 04:28:35;;;;;;;17.88;14.63;;;615.00;2432.00;;;;;;5091412;28;20024;-63
2021/07/26 04:31:01;;;;;;;19.40;14.15;;;615.00;2432.00;;;;;;5091408;28;20035;-61
2021/07/26 04:33:27;;;;;;;16.73;14.93;;;615.10;2432.00;;;;;;5091391;28;20047;-61
2021/07/26 04:35:52;;;;;;;17.55;14.30;;;615.20;2432.00;;;;;;5091285;28;20378;-61
2021/07/26 04:38:18;;;;;;;18.15;14.30;;;640.10;2432.00;;;;;;5091429;28;20020;-62
2021/07/26 04:40:44;;;;;;;18.60;14.55;;;640.50;2432.00;;;;;;5091461;28;20039;-62
2021/07/26 04:43:09;;;;;;;16.58;14.70;;;665.60;2406.40;;;;;;5090815;28;20020;-62
2021/07/26 04:45:35;;;;;;;15.95;14.43;;;666.00;2380.80;;;;;;5091152;28;20036;-61
2021/07/26 04:48:01;;;;;;;18.38;15.77;;;666.20;2380.80;;;;;;5090844;28;20027;-61
2021/07/26 04:50:26;;;;;;;19.63;14.60;;;666.50;2329.60;;;;;;5091275;28;20023;-61
2021/07/26 04:52:52;;;;;;;15.60;14.00;;;691.30;2304.00;;;;;;5090909;28;20042;-61
2021/07/26 04:55:19;;;;;;;19.70;14.07;;;716.80;2201.60;;;;;;5091112;28;20106;-61
2021/07/26 04:57:45;;;;;;;14.98;13.38;;;742.80;2022.40;;;;;;5091027;28;20032;-61
2021/07/26 05:00:11;;;;;;;16.40;12.85;;;742.50;2048.00;;;;;;5090757;28;20027;-60
2021/07/26 05:02:39;;;;;;;22.17;14.27;;;742.50;2099.20;;;;;;5090841;28;20037;-61
2021/07/26 05:05:06;;;;;;;18.55;14.10;;;717.40;2124.80;;;;;;5090790;28;20043;-61
2021/07/26 05:07:32;;;;;;;16.05;13.18;;;742.50;2073.60;;;;;;5090872;28;20019;-61
2021/07/26 05:09:58;;;;;;;14.68;13.07;;;742.60;2048.00;;;;;;5090958;28;20099;-62
2021/07/26 05:12:23;;;;;;;15.77;14.05;;;717.20;2073.60;;;;;;5090448;28;20031;-61
2021/07/26 05:14:52;;;;;;;22.02;14.50;;;717.10;2099.20;;;;;;5090569;28;20034;-62
2021/07/26 05:17:26;;;;;;;17.00;13.60;;;768.00;1945.60;;;;;;5090625;28;20020;-61
2021/07/26 05:19:52;;;;;;;18.45;13.63;;;743.20;1971.20;;;;;;5090530;28;20428;-61
2021/07/26 05:22:19;;;;;;;22.17;13.68;;;742.70;2073.60;;;;;;5090539;28;20020;-62
2021/07/26 05:24:45;;;;;;;18.95;14.35;;;717.20;2048.00;;;;;;5090587;28;20044;-61
2021/07/26 05:27:11;;;;;;;16.27;14.27;;;691.80;2099.20;;;;;;5090199;28;20020;-61
2021/07/26 05:29:38;;;;;;;16.58;14.40;;;691.30;2176.00;;;;;;5083930;28;20024;-60
2021/07/26 05:32:04;;;;;;;14.95;12.85;;;691.20;2227.20;;;;;;5078940;28;20081;-62
2021/07/26 05:34:30;;;;;;;18.63;14.85;;;691.40;2227.20;;;;;;5079332;28;20394;-62
2021/07/26 05:36:56;;;;;;;20.48;16.20;;;691.70;2201.60;;;;;;5077793;28;20024;-61
2021/07/26 05:39:23;;;;;;;26.83;14.48;;;716.90;2176.00;;;;;;5079321;28;20024;-61
2021/07/26 05:41:50;;;;;;;20.52;16.73;;;717.60;2124.80;;;;;;5079080;28;20059;-61
2021/07/26 05:44:16;;;;;;;21.75;15.73;;;717.40;2124.80;;;;;;5077967;28;20112;-61
2021/07/26 05:46:42;;;;;;;17.58;15.50;;;717.00;2201.60;;;;;;5078687;28;20471;-61
2021/07/26 05:49:07;;;;;;;19.02;14.65;;;692.00;2201.60;;;;;;5074908;28;20021;-62
2021/07/26 05:51:33;;;;;;;18.38;15.93;;;691.90;2227.20;;;;;;5069954;28;20368;-63
2021/07/26 05:53:59;;;;;;;18.75;16.60;;;717.40;2176.00;;;;;;5069956;28;20032;-61
2021/07/26 05:56:25;;;;;;;22.50;15.35;;;794.00;1971.20;;;;;;5069830;28;20032;-61
2021/07/26 05:58:51;;;;;;;15.50;14.02;;;845.50;1792.00;;;;;;5069733;28;20042;-62
2021/07/26 06:03:49;;;;;;;17.80;14.80;;;844.80;1740.80;;;;;;5070231;28;20036;-64
2021/07/26 06:06:16;;;;;;;18.90;15.45;;;794.50;1843.20;;;;;;5069885;28;20036;-60
2021/07/26 06:08:42;;;;;;;16.10;14.43;;;820.00;1792.00;;;;;;5069557;28;20391;-64
2021/07/26 06:11:07;;;;;;;19.25;16.42;;;819.60;1792.00;;;;;;5069797;28;20025;-61
2021/07/26 06:13:33;;;;;;;18.98;16.35;;;870.90;1664.00;;;;;;5069783;28;20459;-61
2021/07/26 06:15:59;;;;;;;18.90;16.95;;;896.90;1587.20;;;;;;5069618;28;20086;-62
2021/07/26 06:18:28;;;;;;;21.08;18.70;;;948.10;1459.20;;;;;;5069842;28;20028;-64
2021/07/26 06:20:54;;;;;;;18.00;15.63;;;998.70;1382.40;;;;;;5070060;28;20028;-70
2021/07/26 06:23:20;;;;;;;17.30;14.38;;;973.20;1382.40;;;;;;5069820;28;20436;-70
2021/07/26 06:25:46;;;;;;;15.60;14.05;;;896.90;1459.20;;;;;;5069742;28;20387;-71
2021/07/26 06:28:12;;;;;;;15.50;13.93;;;845.40;1638.40;;;;;;5069515;28;20020;-69
2021/07/26 06:30:38;;;;;;;16.65;13.77;;;819.60;1689.60;;;;;;5069623;28;20097;-69
2021/07/26 06:33:08;;;;;;;16.42;14.32;;;794.00;1792.00;;;;;;5069229;28;20044;-70
2021/07/26 06:35:34;;;;;;;21.52;16.05;;;768.10;1843.20;;;;;;5068260;28;20032;-71
2021/07/26 06:38:00;;;;;;;19.50;15.73;;;743.30;1894.40;;;;;;5069467;28;20092;-71
2021/07/26 06:40:26;;;;;;;19.00;16.30;;;742.60;1945.60;;;;;;5069636;28;20058;-70
2021/07/26 06:42:52;;;;;;;22.45;17.30;;;717.70;1945.60;;;;;;5069361;28;20031;-70
2021/07/26 06:45:18;;;;;;;28.92;17.98;;;742.40;1971.20;;;;;;5069212;28;20032;-66
2021/07/26 06:47:44;;;;;;;24.58;19.65;;;742.60;1971.20;;;;;;5069509;28;20159;-69
2021/07/26 06:50:10;;;;;;;27.42;20.80;;;768.60;1843.20;;;;;;5069459;28;20036;-67
2021/07/26 06:52:36;;;;;;;25.33;22.08;;;896.20;1561.60;;;;;;5069658;28;20027;-69
2021/07/26 06:55:03;;;;;;;24.70;22.25;;;973.20;1433.60;;;;;;5068098;28;20036;-67
2021/07/26 06:57:29;;;;;;;24.67;22.23;;;1024.50;1280.00;;;;;;5069187;28;20099;-69
2021/07/26 06:59:54;;;;;;;28.02;24.98;;;1050.00;1228.80;;;;;;5070746;28;20586;-70
2021/07/26 07:02:20;;;;;;;27.60;25.00;;;1075.60;1152.00;;;;;;5072522;28;20020;-69
2021/07/26 07:04:46;;;;;;;34.30;26.38;;;1101.70;1100.80;;;;;;5072885;28;20430;-69
2021/07/26 07:07:11;;;;;;;27.63;24.73;;;1127.00;1049.60;;;;;;5072700;28;20025;-70
2021/07/26 07:09:37;;;;;;;28.17;25.67;;;1126.70;1075.20;;;;;;5072791;28;20040;-68
2021/07/26 07:12:03;;;;;;;28.98;25.88;;;1152.40;1024.00;;;;;;5072173;28;20028;-69
2021/07/26 07:14:29;;;;;;;26.35;23.70;;;1126.90;1024.00;;;;;;5074790;28;20044;-70
2021/07/26 07:16:55;;;;;;;25.60;22.88;;;1126.60;1024.00;;;;;;5087771;28;20028;-71
2021/07/26 07:19:21;;;;;;;28.85;22.20;;;1075.60;1075.20;;;;;;5087578;28;20040;-68
2021/07/26 07:21:46;;;;;;;23.73;21.25;;;999.00;1177.60;;;;;;5087512;28;20012;-70
2021/07/26 07:24:12;;;;;;;25.13;21.63;;;972.80;1254.40;;;;;;5087353;28;20028;-69
2021/07/26 07:26:38;;;;;;;23.00;19.90;;;922.40;1305.60;;;;;;5087628;28;20119;-69
2021/07/26 07:29:04;;;;;;;24.55;22.02;;;921.90;1331.20;;;;;;5087780;28;20059;-69
2021/07/26 07:31:48;;;;;;;25.60;21.45;;;896.10;1382.40;;;;;;5086713;28;20052;-68
2021/07/26 07:34:15;;;;;;;25.17;22.55;;;871.00;1408.00;;;;;;5087715;28;20039;-70
2021/07/26 07:36:42;;;;;;;25.35;19.95;;;870.60;1459.20;;;;;;5087487;28;20028;-68
2021/07/26 07:39:09;;;;;;;23.48;20.50;;;870.40;1459.20;;;;;;5084814;28;20089;-69
2021/07/26 07:41:34;;;;;;;24.52;21.17;;;845.40;1484.80;;;;;;5072063;28;20056;-70
2021/07/26 07:44:01;;;;;;;27.23;22.60;;;845.30;1561.60;;;;;;5072094;28;20064;-70
2021/07/26 07:46:26;;;;;;;24.40;21.85;;;845.20;1510.40;;;;;;5072312;28;20012;-71
2021/07/26 07:48:52;;;;;;;24.73;22.23;;;845.60;1510.40;;;;;;5072132;28;20082;-67
2021/07/26 07:51:18;;;;;;;25.63;21.17;;;922.00;1408.00;;;;;;5073617;28;20035;-66
2021/07/26 07:53:45;;;;;;;25.42;21.17;;;896.90;1356.80;;;;;;5072918;28;20393;-69
2021/07/26 07:56:11;;;;;;;24.25;21.77;;;896.90;1356.80;;;;;;5074304;28;20769;-69
2021/07/26 07:58:37;;;;;;;22.95;20.25;;;896.70;1382.40;;;;;;5073910;28;20024;-69
2021/07/26 08:01:03;;;;;;;32.40;21.33;;;871.30;1433.60;;;;;;5073480;28;20023;-70
2021/07/26 08:03:29;;;;;;;21.30;19.08;;;896.00;1408.00;;;;;;5086241;28;20024;-69
2021/07/26 08:05:55;;;;;;;23.05;20.85;;;871.10;1433.60;;;;;;5092028;28;20126;-70
2021/07/26 08:08:22;;;;;;;25.98;19.98;;;871.10;1459.20;;;;;;5091815;28;20481;-70
2021/07/26 08:10:47;;;;;;;25.23;21.10;;;870.90;1459.20;;;;;;5091739;28;20024;-70
2021/07/26 08:13:20;;;;;;;22.45;20.13;;;870.70;1510.40;;;;;;5091734;28;20030;-70
2021/07/26 08:15:51;;;;;;;26.13;20.92;;;870.50;1536.00;;;;;;5091761;28;20063;-71
2021/07/26 08:18:17;;;;;;;23.83;21.42;;;845.30;1612.80;;;;;;5091912;28;20028;-70
2021/07/26 08:20:43;;;;;;;23.42;20.17;;;844.90;1689.60;;;;;;5091779;28;20031;-70
2021/07/26 08:23:09;;;;;;;23.40;18.88;;;820.10;1689.60;;;;;;5091751;28;20381;-69
2021/07/26 08:25:34;;;;;;;22.77;18.52;;;820.00;1715.20;;;;;;5091679;28;20036;-70
2021/07/26 08:28:00;;;;;;;20.40;18.27;;;819.90;1715.20;;;;;;5091324;28;20047;-69
2021/07/26 08:30:28;;;;;;;23.83;18.52;;;819.50;1766.40;;;;;;5091415;28;20040;-67
2021/07/26 08:32:54;;;;;;;20.92;18.75;;;819.60;1740.80;;;;;;5091031;28;20044;-70
2021/07/26 08:35:21;;;;;;;24.02;18.50;;;819.80;1766.40;;;;;;5091528;28;20039;-69
2021/07/26 08:37:47;;;;;;;20.20;18.10;;;820.10;1766.40;;;;;;5091304;28;20381;-70
2021/07/26 08:40:13;;;;;;;22.95;16.98;;;820.10;1740.80;;;;;;5091290;28;20103;-70
2021/07/26 08:42:40;;;;;;;19.95;17.70;;;844.90;1740.80;;;;;;5091219;28;20017;-70
2021/07/26 08:45:10;;;;;;;18.50;16.45;;;844.90;1740.80;;;;;;5091313;28;20063;-70
2021/07/26 08:47:41;;;;;;;21.63;16.67;;;820.00;1740.80;;;;;;5091364;28;20162;-70
2021/07/26 08:50:07;;;;;;;15.50;13.85;;;819.80;1766.40;;;;;;5091252;28;20024;-70
2021/07/26 08:52:41;;;;;;;19.35;16.05;;;819.50;1792.00;;;;;;5089047;28;20036;-70
2021/07/26 08:55:10;;;;;;;23.42;15.93;;;819.50;1817.60;;;;;;5091320;28;20024;-70
2021/07/26 08:57:39;;;;;;;20.30;15.82;;;819.30;1792.00;;;;;;5091105;28;20035;-71
2021/07/26 09:00:05;;;;;;;18.15;15.52;;;819.40;1817.60;;;;;;5091068;28;20028;-70
2021/07/26 09:02:31;;;;;;;20.50;15.80;;;819.50;1868.80;;;;;;5090698;28;20046;-70
2021/07/26 09:04:57;;;;;;;19.25;15.65;;;819.80;1817.60;;;;;;5091064;28;20482;-70
2021/07/26 09:07:26;;;;;;;20.10;16.20;;;819.80;1843.20;;;;;;5090793;28;20026;-70
2021/07/26 09:09:52;;;;;;;18.13;15.18;;;819.80;1792.00;;;;;;5090799;28;20020;-70
2021/07/26 09:12:36;;;;;;;24.65;17.02;;;819.80;1817.60;;;;;;5090713;28;20020;-69
2021/07/26 09:15:04;;;;;;;19.67;15.05;;;820.10;1792.00;;;;;;5090579;28;20051;-70
2021/07/26 09:17:43;;;;;;;21.73;15.90;;;844.90;1817.60;;;;;;5090445;28;20020;-70
2021/07/26 09:20:19;;;;;;;21.00;15.45;;;819.80;1817.60;;;;;;5090432;28;20124;-70
2021/07/26 09:22:46;;;;;;;22.20;15.85;;;819.50;1843.20;;;;;;5090169;28;20089;-67
2021/07/26 09:25:23;;;;;;;19.20;14.98;;;819.30;1868.80;;;;;;5090328;28;20032;-67
2021/07/26 09:28:01;;;;;;;15.25;13.68;;;819.20;1868.80;;;;;;5090649;28;20184;-69
2021/07/26 09:30:41;;;;;;;23.80;15.60;;;794.50;1868.80;;;;;;5089718;28;20103;-70
2021/07/26 09:33:32;;;;;;;20.45;13.82;;;819.20;1843.20;;;;;;5088691;28;20098;-71
2021/07/26 09:36:35;;;;;;;21.50;15.13;;;819.30;1868.80;;;;;;5085138;28;20713;-70
2021/07/26 09:39:03;;;;;;;14.40;12.95;;;819.50;1868.80;;;;;;5006256;28;20042;-70
2021/07/26 09:41:47;;;;;;;16.38;12.82;;;819.90;1817.60;;;;;;5006608;28;20034;-67
2021/07/26 09:44:13;;;;;;;18.80;13.07;;;820.00;1766.40;;;;;;5005708;28;20041;-68
2021/07/26 09:46:39;;;;;;;17.63;12.32;;;844.90;1817.60;;;;;;5006273;28;20033;-69
2021/07/26 09:49:16;;;;;;;14.80;12.65;;;845.00;1792.00;;;;;;5006543;28;20034;-67
2021/07/26 09:52:01;;;;;;;13.80;12.35;;;845.40;1792.00;;;;;;5006328;28;20425;-70
2021/07/26 09:54:44;;;;;;;20.58;12.73;;;845.50;1740.80;;;;;;5006439;28;20069;-70
2021/07/26 09:57:19;;;;;;;;;;;845.40;1740.80;;;;;;5006222;28;20026;-73
2021/07/26 09:59:46;;;;;;;15.35;12.40;;;845.50;1740.80;;;;;;4990454;28;19921;-73
2021/07/26 10:02:14;;;;;;;19.40;13.07;;;845.40;1740.80;;;;;;5006123;28;20042;-68
2021/07/26 10:04:43;;;;;;;15.77;13.45;;;845.10;1792.00;;;;;;5006108;28;20069;-69
2021/07/26 10:07:13;;;;;;;19.05;14.25;;;844.90;1766.40;;;;;;5006209;28;20507;-71
2021/07/26 10:09:43;;;;;;;19.00;13.32;;;844.80;1792.00;;;;;;5006044;28;20042;-70
2021/07/26 10:12:20;;;;;;;19.40;14.25;;;820.10;1792.00;;;;;;5005742;28;20022;-70
2021/07/26 10:14:47;;;;;;;18.17;13.95;;;820.10;1766.40;;;;;;5029117;28;20032;-71
2021/07/26 10:17:16;;;;;;;18.25;11.98;;;820.10;1766.40;;;;;;5088077;28;20645;-70
2021/07/26 10:19:41;;;;;;;17.73;13.15;;;820.10;1715.20;;;;;;5088264;28;20431;-70
2021/07/26 10:22:12;;;;;;;15.60;13.35;;;844.80;1792.00;;;;;;5088485;28;20027;-66
2021/07/26 10:24:52;;;;;;;20.85;13.68;;;820.00;1792.00;;;;;;5088361;28;20032;-67
2021/07/26 10:27:21;;;;;;;18.52;13.95;;;819.80;1792.00;;;;;;5088384;28;20073;-70
2021/07/26 10:29:52;;;;;;;17.70;13.57;;;819.90;1792.00;;;;;;5088302;28;20394;-66
2021/07/26 10:32:29;;;;;;;16.02;14.40;;;819.80;1792.00;;;;;;5087513;28;20059;-69
2021/07/26 10:35:00;;;;;;;23.60;14.77;;;819.90;1792.00;;;;;;5074912;28;20068;-69
2021/07/26 10:37:41;;;;;;;26.55;13.82;;;820.10;1792.00;;;;;;5071645;28;20028;-69
2021/07/26 10:40:25;;;;;;;16.90;12.27;;;844.80;1792.00;;;;;;5071891;28;20023;-70
2021/07/26 10:42:52;;;;;;;23.08;14.10;;;820.10;1766.40;;;;;;5071428;28;20090;-69
2021/07/26 10:45:36;;;;;;;19.90;14.57;;;820.10;1740.80;;;;;;5071934;28;20048;-68
2021/07/26 10:48:20;;;;;;;23.25;14.23;;;820.10;1792.00;;;;;;5071572;28;20511;-69
2021/07/26 10:50:47;;;;;;;22.52;14.85;;;820.10;1766.40;;;;;;5071203;28;20021;-68
2021/07/26 10:53:35;;;;;;;19.73;14.73;;;844.80;1792.00;;;;;;5071334;28;20029;-69
2021/07/26 10:56:09;;;;;;;22.48;14.52;;;845.10;1817.60;;;;;;5064658;28;20028;-69
2021/07/26 10:58:40;;;;;;;17.50;13.65;;;845.40;1792.00;;;;;;5070054;28;20032;-68
2021/07/26 11:01:26;;;;;;;18.97;14.77;;;870.40;1740.80;;;;;;5071343;28;20031;-68
2021/07/26 11:03:55;;;;;;;18.60;13.82;;;870.90;1740.80;;;;;;5070616;28;20032;-69
2021/07/26 11:06:37;;;;;;;24.85;14.05;;;870.90;1689.60;;;;;;5071446;28;20074;-69
2021/07/26 11:09:32;;;;;;;16.20;11.90;;;871.10;1689.60;;;;;;5071207;28;20074;-69
2021/07/26 11:11:59;;;;;;;19.23;13.60;;;871.10;1612.80;;;;;;5066602;28;20068;-69
2021/07/26 11:14:25;;;;;;;26.90;15.65;;;871.30;1587.20;;;;;;5070956;28;20474;-69
2021/07/26 11:17:04;;;;;;;18.92;12.82;;;896.10;1638.40;;;;;;5070550;28;20032;-69
2021/07/26 11:19:40;;;;;;;13.88;11.57;;;896.10;1612.80;;;;;;5070988;28;20035;-70
2021/07/26 11:22:21;;;;;;;25.38;14.13;;;896.10;1638.40;;;;;;5071126;28;20082;-69
2021/07/26 11:24:49;;;;;;;17.88;13.38;;;896.30;1664.00;;;;;;5070866;28;20045;-68
2021/07/26 11:27:36;;;;;;;20.40;13.43;;;896.40;1536.00;;;;;;5070900;28;20035;-69
2021/07/26 11:30:03;;;;;;;19.10;12.52;;;896.20;1510.40;;;;;;5070171;28;20360;-69
2021/07/26 11:32:29;;;;;;;25.80;16.35;;;896.30;1459.20;;;;;;5070463;28;20052;-68
2021/07/26 11:34:59;;;;;;;26.10;12.98;;;896.50;1510.40;;;;;;5070871;28;20150;-68
2021/07/26 11:37:33;;;;;;;31.55;12.93;;;896.20;1459.20;;;;;;5073025;28;20115;-69
2021/07/26 11:40:00;;;;;;;20.02;13.40;;;896.40;1459.20;;;;;;5072299;28;20492;-69
2021/07/26 11:42:30;;;;;;;26.67;15.15;;;896.50;1459.20;;;;;;5072489;28;20094;-69
2021/07/26 11:44:56;;;;;;;22.50;11.57;;;896.80;1510.40;;;;;;5070002;28;20041;-69
2021/07/26 11:47:38;;;;;;;20.10;10.88;;;896.90;1433.60;;;;;;5072080;28;20021;-68
2021/07/26 11:50:14;;;;;;;21.20;10.93;;;896.80;1382.40;;;;;;5071840;28;20027;-68
2021/07/26 11:52:56;;;;;;;22.25;11.68;;;896.60;1433.60;;;;;;5072120;28;20096;-71
2021/07/26 11:55:23;;;;;;;22.77;12.52;;;896.70;1408.00;;;;;;5072039;28;20029;-68
2021/07/26 11:57:59;;;;;;;26.77;11.95;;;896.70;1382.40;;;;;;5072127;28;20074;-71
2021/07/26 12:00:26;;;;;;;23.73;11.00;;;896.60;1459.20;;;;;;5072146;28;20025;-68
2021/07/26 12:02:52;;;;;;;23.08;10.55;;;896.60;1433.60;;;;;;5069268;28;20439;-67
2021/07/26 12:05:18;;;;;;;22.35;10.95;;;896.60;1382.40;;;;;;5070219;28;20068;-68
2021/07/26 12:07:45;;;;;;;20.80;11.18;;;896.70;1433.60;;;;;;5070270;28;20074;-68
2021/07/26 12:10:13;;;;;;;22.35;10.00;;;896.90;1382.40;;;;;;5069983;28;20124;-67